sensor_id;sensor_type;location;lat;lon;timestamp;P1;durP1;ratioP1;P2;durP2;ratioP2
19617;SDS011;9956;51.006;13.670;2023-09-08T00:02:31;8.57;;;7.63;;
19617;SDS011;9956;51.006;13.670;2023-09-08T00:07:32;10.75;;;8.05;;
19617;SDS011;9956;51.006;13.670;2023-09-08T00:12:32;8.80;;;7.82;;
19617;SDS011;9956;51.006;13.670;2023-09-08T00:17:33;7.93;;;7.22;;
19617;SDS011;9956;51.006;13.670;2023-09-08T00:22:33;10.27;;;8.13;;
19617;SDS011;9956;51.006;13.670;2023-09-08T00:27:34;9.30;;;7.22;;
19617;SDS011;9956;51.006;13.670;2023-09-08T00:32:34;10.38;;;7.70;;
19617;SDS011;9956;51.006;13.670;2023-09-08T00:37:35;9.00;;;7.85;;
19617;SDS011;9956;51.006;13.670;2023-09-08T00:42:36;7.82;;;6.90;;
19617;SDS011;9956;51.006;13.670;2023-09-08T00:47:36;10.05;;;7.68;;
19617;SDS011;9956;51.006;13.670;2023-09-08T00:52:37;8.93;;;7.13;;
19617;SDS011;9956;51.006;13.670;2023-09-08T00:57:37;7.88;;;7.05;;
19617;SDS011;9956;51.006;13.670;2023-09-08T01:02:38;8.80;;;7.47;;
19617;SDS011;9956;51.006;13.670;2023-09-08T01:07:38;8.30;;;7.35;;
19617;SDS011;9956;51.006;13.670;2023-09-08T01:12:39;8.82;;;6.68;;
19617;SDS011;9956;51.006;13.670;2023-09-08T01:17:40;7.68;;;6.82;;
19617;SDS011;9956;51.006;13.670;2023-09-08T01:27:50;8.05;;;7.15;;
19617;SDS011;9956;51.006;13.670;2023-09-08T01:32:53;9.43;;;6.95;;
19617;SDS011;9956;51.006;13.670;2023-09-08T01:37:54;9.90;;;7.75;;
19617;SDS011;9956;51.006;13.670;2023-09-08T01:42:54;9.10;;;7.15;;
19617;SDS011;9956;51.006;13.670;2023-09-08T01:47:56;8.32;;;7.50;;
19617;SDS011;9956;51.006;13.670;2023-09-08T01:52:57;10.00;;;8.43;;
19617;SDS011;9956;51.006;13.670;2023-09-08T01:57:57;8.10;;;7.30;;
19617;SDS011;9956;51.006;13.670;2023-09-08T02:02:58;9.63;;;7.50;;
19617;SDS011;9956;51.006;13.670;2023-09-08T02:07:58;8.07;;;7.28;;
19617;SDS011;9956;51.006;13.670;2023-09-08T02:12:59;8.07;;;7.20;;
19617;SDS011;9956;51.006;13.670;2023-09-08T02:17:59;9.27;;;7.28;;
19617;SDS011;9956;51.006;13.670;2023-09-08T02:23:03;7.22;;;6.55;;
19617;SDS011;9956;51.006;13.670;2023-09-08T02:28:07;8.13;;;7.32;;
19617;SDS011;9956;51.006;13.670;2023-09-08T02:33:08;10.40;;;6.90;;
19617;SDS011;9956;51.006;13.670;2023-09-08T02:38:09;11.43;;;6.85;;
19617;SDS011;9956;51.006;13.670;2023-09-08T02:43:10;7.97;;;7.10;;
19617;SDS011;9956;51.006;13.670;2023-09-08T02:48:11;8.40;;;7.60;;
19617;SDS011;9956;51.006;13.670;2023-09-08T02:53:12;8.52;;;7.03;;
19617;SDS011;9956;51.006;13.670;2023-09-08T02:58:12;8.35;;;7.45;;
19617;SDS011;9956;51.006;13.670;2023-09-08T03:03:13;8.35;;;7.57;;
19617;SDS011;9956;51.006;13.670;2023-09-08T03:08:14;8.23;;;7.43;;
19617;SDS011;9956;51.006;13.670;2023-09-08T03:13:15;10.90;;;7.32;;
19617;SDS011;9956;51.006;13.670;2023-09-08T03:18:17;8.23;;;7.53;;
19617;SDS011;9956;51.006;13.670;2023-09-08T03:23:18;8.93;;;7.70;;
19617;SDS011;9956;51.006;13.670;2023-09-08T03:28:18;9.30;;;7.70;;
19617;SDS011;9956;51.006;13.670;2023-09-08T03:33:19;8.40;;;7.22;;
19617;SDS011;9956;51.006;13.670;2023-09-08T03:38:20;8.93;;;8.02;;
19617;SDS011;9956;51.006;13.670;2023-09-08T03:43:22;9.73;;;8.75;;
19617;SDS011;9956;51.006;13.670;2023-09-08T03:48:22;8.75;;;7.95;;
19617;SDS011;9956;51.006;13.670;2023-09-08T03:53:23;9.32;;;8.43;;
19617;SDS011;9956;51.006;13.670;2023-09-08T03:58:23;7.85;;;7.15;;
19617;SDS011;9956;51.006;13.670;2023-09-08T04:03:24;9.02;;;7.90;;
19617;SDS011;9956;51.006;13.670;2023-09-08T04:08:24;10.30;;;7.25;;
19617;SDS011;9956;51.006;13.670;2023-09-08T04:13:25;9.18;;;8.27;;
19617;SDS011;9956;51.006;13.670;2023-09-08T04:18:25;9.60;;;8.48;;
19617;SDS011;9956;51.006;13.670;2023-09-08T04:23:27;11.02;;;8.68;;
19617;SDS011;9956;51.006;13.670;2023-09-08T04:28:28;10.32;;;8.73;;
19617;SDS011;9956;51.006;13.670;2023-09-08T04:33:29;10.02;;;8.18;;
19617;SDS011;9956;51.006;13.670;2023-09-08T04:38:29;9.10;;;8.20;;
19617;SDS011;9956;51.006;13.670;2023-09-08T04:43:30;8.82;;;7.95;;
19617;SDS011;9956;51.006;13.670;2023-09-08T04:48:30;8.90;;;8.05;;
19617;SDS011;9956;51.006;13.670;2023-09-08T04:53:31;8.55;;;7.70;;
19617;SDS011;9956;51.006;13.670;2023-09-08T04:58:33;8.57;;;7.63;;
19617;SDS011;9956;51.006;13.670;2023-09-08T05:03:34;9.40;;;8.38;;
19617;SDS011;9956;51.006;13.670;2023-09-08T05:08:34;9.07;;;8.18;;
19617;SDS011;9956;51.006;13.670;2023-09-08T05:13:35;9.45;;;8.43;;
19617;SDS011;9956;51.006;13.670;2023-09-08T05:18:38;9.00;;;8.10;;
19617;SDS011;9956;51.006;13.670;2023-09-08T05:23:39;10.60;;;9.25;;
19617;SDS011;9956;51.006;13.670;2023-09-08T05:28:40;12.75;;;10.38;;
19617;SDS011;9956;51.006;13.670;2023-09-08T05:33:41;12.50;;;11.27;;
19617;SDS011;9956;51.006;13.670;2023-09-08T05:38:42;13.38;;;11.10;;
19617;SDS011;9956;51.006;13.670;2023-09-08T05:43:42;11.77;;;9.85;;
19617;SDS011;9956;51.006;13.670;2023-09-08T05:48:43;10.65;;;9.60;;
19617;SDS011;9956;51.006;13.670;2023-09-08T05:53:44;11.18;;;10.00;;
19617;SDS011;9956;51.006;13.670;2023-09-08T05:58:45;10.52;;;8.30;;
19617;SDS011;9956;51.006;13.670;2023-09-08T06:03:46;11.48;;;9.45;;
19617;SDS011;9956;51.006;13.670;2023-09-08T06:08:48;10.20;;;9.20;;
19617;SDS011;9956;51.006;13.670;2023-09-08T06:13:49;11.00;;;9.60;;
19617;SDS011;9956;51.006;13.670;2023-09-08T06:18:49;12.68;;;10.52;;
19617;SDS011;9956;51.006;13.670;2023-09-08T06:23:53;10.25;;;9.25;;
19617;SDS011;9956;51.006;13.670;2023-09-08T06:28:53;10.60;;;9.50;;
19617;SDS011;9956;51.006;13.670;2023-09-08T06:33:54;8.90;;;8.00;;
19617;SDS011;9956;51.006;13.670;2023-09-08T06:38:56;9.00;;;8.20;;
19617;SDS011;9956;51.006;13.670;2023-09-08T06:43:57;8.82;;;8.02;;
19617;SDS011;9956;51.006;13.670;2023-09-08T06:48:57;8.65;;;7.75;;
19617;SDS011;9956;51.006;13.670;2023-09-08T06:53:58;9.70;;;7.45;;
19617;SDS011;9956;51.006;13.670;2023-09-08T06:59:05;8.18;;;7.43;;
19617;SDS011;9956;51.006;13.670;2023-09-08T07:04:06;8.55;;;7.75;;
19617;SDS011;9956;51.006;13.670;2023-09-08T07:09:07;8.93;;;8.13;;
19617;SDS011;9956;51.006;13.670;2023-09-08T07:14:08;9.57;;;8.57;;
19617;SDS011;9956;51.006;13.670;2023-09-08T07:19:10;8.77;;;7.88;;
19617;SDS011;9956;51.006;13.670;2023-09-08T07:24:10;10.93;;;8.15;;
19617;SDS011;9956;51.006;13.670;2023-09-08T07:29:12;8.27;;;6.88;;
19617;SDS011;9956;51.006;13.670;2023-09-08T07:34:13;9.40;;;7.88;;
19617;SDS011;9956;51.006;13.670;2023-09-08T07:39:13;8.10;;;7.28;;
19617;SDS011;9956;51.006;13.670;2023-09-08T07:44:14;8.25;;;7.40;;
19617;SDS011;9956;51.006;13.670;2023-09-08T07:49:15;8.48;;;6.43;;
19617;SDS011;9956;51.006;13.670;2023-09-08T07:54:15;8.10;;;6.05;;
19617;SDS011;9956;51.006;13.670;2023-09-08T07:59:16;8.27;;;6.47;;
19617;SDS011;9956;51.006;13.670;2023-09-08T08:04:16;7.18;;;5.90;;
19617;SDS011;9956;51.006;13.670;2023-09-08T08:09:17;6.72;;;6.03;;
19617;SDS011;9956;51.006;13.670;2023-09-08T08:14:17;6.80;;;5.43;;
19617;SDS011;9956;51.006;13.670;2023-09-08T08:19:18;6.18;;;5.57;;
19617;SDS011;9956;51.006;13.670;2023-09-08T08:24:18;6.20;;;5.63;;
19617;SDS011;9956;51.006;13.670;2023-09-08T08:29:19;7.25;;;6.00;;
19617;SDS011;9956;51.006;13.670;2023-09-08T08:34:20;9.43;;;6.00;;
19617;SDS011;9956;51.006;13.670;2023-09-08T08:39:20;7.55;;;6.07;;
19617;SDS011;9956;51.006;13.670;2023-09-08T08:44:21;11.40;;;6.25;;
19617;SDS011;9956;51.006;13.670;2023-09-08T08:49:21;7.07;;;6.15;;
19617;SDS011;9956;51.006;13.670;2023-09-08T08:54:22;7.53;;;6.38;;
19617;SDS011;9956;51.006;13.670;2023-09-08T08:59:24;6.68;;;5.88;;
19617;SDS011;9956;51.006;13.670;2023-09-08T09:04:25;6.30;;;5.45;;
19617;SDS011;9956;51.006;13.670;2023-09-08T09:09:26;7.95;;;5.45;;
19617;SDS011;9956;51.006;13.670;2023-09-08T09:14:26;6.10;;;4.97;;
19617;SDS011;9956;51.006;13.670;2023-09-08T09:19:27;9.20;;;4.35;;
19617;SDS011;9956;51.006;13.670;2023-09-08T09:24:32;5.43;;;4.22;;
19617;SDS011;9956;51.006;13.670;2023-09-08T09:29:34;9.15;;;4.55;;
19617;SDS011;9956;51.006;13.670;2023-09-08T09:34:47;4.55;;;4.15;;
19617;SDS011;9956;51.006;13.670;2023-09-08T09:39:53;7.20;;;4.18;;
19617;SDS011;9956;51.006;13.670;2023-09-08T09:44:54;7.20;;;4.25;;
19617;SDS011;9956;51.006;13.670;2023-09-08T09:49:54;6.28;;;4.00;;
19617;SDS011;9956;51.006;13.670;2023-09-08T09:54:58;5.75;;;4.60;;
19617;SDS011;9956;51.006;13.670;2023-09-08T09:59:59;5.00;;;3.85;;
19617;SDS011;9956;51.006;13.670;2023-09-08T10:05:10;4.95;;;3.55;;
19617;SDS011;9956;51.006;13.670;2023-09-08T10:10:12;5.20;;;4.00;;
19617;SDS011;9956;51.006;13.670;2023-09-08T10:15:12;4.28;;;3.40;;
19617;SDS011;9956;51.006;13.670;2023-09-08T10:20:17;6.53;;;4.03;;
19617;SDS011;9956;51.006;13.670;2023-09-08T10:25:18;6.13;;;4.20;;
19617;SDS011;9956;51.006;13.670;2023-09-08T10:30:21;5.50;;;3.72;;
19617;SDS011;9956;51.006;13.670;2023-09-08T10:35:24;4.30;;;3.90;;
19617;SDS011;9956;51.006;13.670;2023-09-08T10:40:25;4.80;;;3.88;;
19617;SDS011;9956;51.006;13.670;2023-09-08T10:45:27;5.00;;;3.85;;
19617;SDS011;9956;51.006;13.670;2023-09-08T10:50:34;6.07;;;4.30;;
19617;SDS011;9956;51.006;13.670;2023-09-08T10:55:39;7.07;;;4.60;;
19617;SDS011;9956;51.006;13.670;2023-09-08T11:00:46;4.10;;;3.70;;
19617;SDS011;9956;51.006;13.670;2023-09-08T11:05:48;3.80;;;3.40;;
19617;SDS011;9956;51.006;13.670;2023-09-08T11:10:48;4.25;;;3.88;;
19617;SDS011;9956;51.006;13.670;2023-09-08T11:15:52;4.93;;;4.10;;
19617;SDS011;9956;51.006;13.670;2023-09-08T11:20:53;4.22;;;3.83;;
19617;SDS011;9956;51.006;13.670;2023-09-08T11:25:54;3.78;;;3.47;;
19617;SDS011;9956;51.006;13.670;2023-09-08T11:30:55;3.97;;;3.67;;
19617;SDS011;9956;51.006;13.670;2023-09-08T11:35:55;5.05;;;3.88;;
19617;SDS011;9956;51.006;13.670;2023-09-08T11:40:56;4.05;;;3.55;;
19617;SDS011;9956;51.006;13.670;2023-09-08T11:45:57;4.22;;;3.83;;
19617;SDS011;9956;51.006;13.670;2023-09-08T11:50:58;4.05;;;3.72;;
19617;SDS011;9956;51.006;13.670;2023-09-08T11:55:59;4.05;;;3.55;;
19617;SDS011;9956;51.006;13.670;2023-09-08T12:00:59;4.15;;;3.75;;
19617;SDS011;9956;51.006;13.670;2023-09-08T12:06:00;4.03;;;3.72;;
19617;SDS011;9956;51.006;13.670;2023-09-08T12:11:02;3.83;;;3.40;;
19617;SDS011;9956;51.006;13.670;2023-09-08T12:16:16;5.75;;;4.07;;
19617;SDS011;9956;51.006;13.670;2023-09-08T12:21:20;4.00;;;3.60;;
19617;SDS011;9956;51.006;13.670;2023-09-08T12:26:21;4.05;;;3.58;;
19617;SDS011;9956;51.006;13.670;2023-09-08T12:31:23;6.03;;;3.40;;
19617;SDS011;9956;51.006;13.670;2023-09-08T12:36:24;3.78;;;3.47;;
19617;SDS011;9956;51.006;13.670;2023-09-08T12:41:24;3.45;;;3.15;;
19617;SDS011;9956;51.006;13.670;2023-09-08T12:46:26;3.67;;;3.38;;
19617;SDS011;9956;51.006;13.670;2023-09-08T12:51:27;4.13;;;3.83;;
19617;SDS011;9956;51.006;13.670;2023-09-08T12:56:27;4.00;;;3.60;;
19617;SDS011;9956;51.006;13.670;2023-09-08T13:01:28;3.67;;;3.35;;
19617;SDS011;9956;51.006;13.670;2023-09-08T13:06:28;6.40;;;4.15;;
19617;SDS011;9956;51.006;13.670;2023-09-08T13:11:29;4.63;;;4.18;;
19617;SDS011;9956;51.006;13.670;2023-09-08T13:16:31;5.07;;;4.53;;
19617;SDS011;9956;51.006;13.670;2023-09-08T13:21:31;6.32;;;3.92;;
19617;SDS011;9956;51.006;13.670;2023-09-08T13:26:32;4.93;;;3.63;;
19617;SDS011;9956;51.006;13.670;2023-09-08T13:31:32;4.00;;;3.70;;
19617;SDS011;9956;51.006;13.670;2023-09-08T13:36:32;5.00;;;3.85;;
19617;SDS011;9956;51.006;13.670;2023-09-08T13:41:50;5.15;;;4.05;;
19617;SDS011;9956;51.006;13.670;2023-09-08T13:46:52;5.95;;;4.35;;
19617;SDS011;9956;51.006;13.670;2023-09-08T13:51:56;5.55;;;3.80;;
19617;SDS011;9956;51.006;13.670;2023-09-08T13:56:58;4.35;;;3.70;;
19617;SDS011;9956;51.006;13.670;2023-09-08T14:02:00;5.55;;;3.97;;
19617;SDS011;9956;51.006;13.670;2023-09-08T14:07:03;4.00;;;3.60;;
19617;SDS011;9956;51.006;13.670;2023-09-08T14:12:04;4.38;;;3.97;;
19617;SDS011;9956;51.006;13.670;2023-09-08T14:17:05;7.00;;;3.95;;
19617;SDS011;9956;51.006;13.670;2023-09-08T14:22:05;3.92;;;3.63;;
19617;SDS011;9956;51.006;13.670;2023-09-08T14:27:05;3.70;;;3.40;;
19617;SDS011;9956;51.006;13.670;2023-09-08T14:32:06;3.70;;;3.40;;
19617;SDS011;9956;51.006;13.670;2023-09-08T14:37:06;4.18;;;3.42;;
19617;SDS011;9956;51.006;13.670;2023-09-08T14:42:08;5.57;;;3.47;;
19617;SDS011;9956;51.006;13.670;2023-09-08T14:47:09;4.15;;;3.35;;
19617;SDS011;9956;51.006;13.670;2023-09-08T14:52:10;4.20;;;3.83;;
19617;SDS011;9956;51.006;13.670;2023-09-08T14:57:10;3.83;;;3.53;;
19617;SDS011;9956;51.006;13.670;2023-09-08T15:02:11;3.80;;;3.50;;
19617;SDS011;9956;51.006;13.670;2023-09-08T15:07:11;3.88;;;3.50;;
19617;SDS011;9956;51.006;13.670;2023-09-08T15:12:12;3.43;;;3.13;;
19617;SDS011;9956;51.006;13.670;2023-09-08T15:17:12;4.00;;;3.70;;
19617;SDS011;9956;51.006;13.670;2023-09-08T15:22:12;5.93;;;3.80;;
19617;SDS011;9956;51.006;13.670;2023-09-08T15:27:13;4.85;;;3.65;;
19617;SDS011;9956;51.006;13.670;2023-09-08T15:32:13;4.20;;;3.80;;
19617;SDS011;9956;51.006;13.670;2023-09-08T15:37:14;5.37;;;3.67;;
19617;SDS011;9956;51.006;13.670;2023-09-08T15:42:14;6.27;;;3.77;;
19617;SDS011;9956;51.006;13.670;2023-09-08T15:47:15;4.93;;;3.90;;
19617;SDS011;9956;51.006;13.670;2023-09-08T15:52:15;5.23;;;4.17;;
19617;SDS011;9956;51.006;13.670;2023-09-08T15:57:16;4.85;;;3.72;;
19617;SDS011;9956;51.006;13.670;2023-09-08T16:02:16;4.07;;;3.75;;
19617;SDS011;9956;51.006;13.670;2023-09-08T16:07:17;4.05;;;3.65;;
19617;SDS011;9956;51.006;13.670;2023-09-08T16:12:17;3.97;;;3.57;;
19617;SDS011;9956;51.006;13.670;2023-09-08T16:17:17;3.80;;;3.50;;
19617;SDS011;9956;51.006;13.670;2023-09-08T16:22:18;4.83;;;3.97;;
19617;SDS011;9956;51.006;13.670;2023-09-08T16:27:18;4.57;;;3.80;;
19617;SDS011;9956;51.006;13.670;2023-09-08T16:32:19;8.60;;;4.15;;
19617;SDS011;9956;51.006;13.670;2023-09-08T16:37:19;4.43;;;3.90;;
19617;SDS011;9956;51.006;13.670;2023-09-08T16:42:20;4.53;;;4.07;;
19617;SDS011;9956;51.006;13.670;2023-09-08T16:47:20;6.65;;;4.38;;
19617;SDS011;9956;51.006;13.670;2023-09-08T16:52:23;5.70;;;4.43;;
19617;SDS011;9956;51.006;13.670;2023-09-08T16:57:23;4.25;;;3.85;;
19617;SDS011;9956;51.006;13.670;2023-09-08T17:02:24;4.90;;;4.40;;
19617;SDS011;9956;51.006;13.670;2023-09-08T17:07:27;7.35;;;4.68;;
19617;SDS011;9956;51.006;13.670;2023-09-08T17:12:27;4.78;;;3.97;;
19617;SDS011;9956;51.006;13.670;2023-09-08T17:17:28;6.32;;;4.13;;
19617;SDS011;9956;51.006;13.670;2023-09-08T17:22:28;4.88;;;4.35;;
19617;SDS011;9956;51.006;13.670;2023-09-08T17:27:29;4.72;;;3.78;;
19617;SDS011;9956;51.006;13.670;2023-09-08T17:32:29;6.13;;;4.22;;
19617;SDS011;9956;51.006;13.670;2023-09-08T17:37:30;5.60;;;4.03;;
19617;SDS011;9956;51.006;13.670;2023-09-08T17:42:30;7.10;;;4.57;;
19617;SDS011;9956;51.006;13.670;2023-09-08T17:47:31;7.47;;;4.30;;
19617;SDS011;9956;51.006;13.670;2023-09-08T17:52:31;5.32;;;4.40;;
19617;SDS011;9956;51.006;13.670;2023-09-08T17:57:32;5.63;;;4.25;;
19617;SDS011;9956;51.006;13.670;2023-09-08T18:02:32;6.70;;;4.88;;
19617;SDS011;9956;51.006;13.670;2023-09-08T18:07:33;6.72;;;5.05;;
19617;SDS011;9956;51.006;13.670;2023-09-08T18:12:33;7.60;;;5.28;;
19617;SDS011;9956;51.006;13.670;2023-09-08T18:17:34;6.53;;;5.10;;
19617;SDS011;9956;51.006;13.670;2023-09-08T18:22:34;5.63;;;5.03;;
19617;SDS011;9956;51.006;13.670;2023-09-08T18:27:35;5.95;;;4.82;;
19617;SDS011;9956;51.006;13.670;2023-09-08T18:32:35;5.70;;;4.85;;
19617;SDS011;9956;51.006;13.670;2023-09-08T18:37:36;4.75;;;4.28;;
19617;SDS011;9956;51.006;13.670;2023-09-08T18:42:37;7.28;;;5.07;;
19617;SDS011;9956;51.006;13.670;2023-09-08T18:47:38;5.57;;;4.35;;
19617;SDS011;9956;51.006;13.670;2023-09-08T18:52:39;5.28;;;4.40;;
19617;SDS011;9956;51.006;13.670;2023-09-08T18:57:40;5.68;;;4.35;;
19617;SDS011;9956;51.006;13.670;2023-09-08T19:02:40;5.82;;;4.47;;
19617;SDS011;9956;51.006;13.670;2023-09-08T19:07:41;8.15;;;5.75;;
19617;SDS011;9956;51.006;13.670;2023-09-08T19:12:43;8.43;;;7.03;;
19617;SDS011;9956;51.006;13.670;2023-09-08T19:17:43;7.47;;;6.25;;
19617;SDS011;9956;51.006;13.670;2023-09-08T19:22:45;19.50;;;13.32;;
19617;SDS011;9956;51.006;13.670;2023-09-08T19:27:46;23.90;;;20.73;;
19617;SDS011;9956;51.006;13.670;2023-09-08T19:32:46;23.40;;;20.80;;
19617;SDS011;9956;51.006;13.670;2023-09-08T19:37:47;24.50;;;22.10;;
19617;SDS011;9956;51.006;13.670;2023-09-08T19:42:47;22.42;;;19.95;;
19617;SDS011;9956;51.006;13.670;2023-09-08T19:47:48;24.02;;;19.58;;
19617;SDS011;9956;51.006;13.670;2023-09-08T19:52:48;21.10;;;18.38;;
19617;SDS011;9956;51.006;13.670;2023-09-08T19:57:49;22.52;;;17.35;;
19617;SDS011;9956;51.006;13.670;2023-09-08T20:02:49;19.13;;;15.65;;
19617;SDS011;9956;51.006;13.670;2023-09-08T20:07:50;17.15;;;15.35;;
19617;SDS011;9956;51.006;13.670;2023-09-08T20:12:50;17.83;;;12.88;;
19617;SDS011;9956;51.006;13.670;2023-09-08T20:17:51;15.25;;;12.35;;
19617;SDS011;9956;51.006;13.670;2023-09-08T20:22:51;16.58;;;13.63;;
19617;SDS011;9956;51.006;13.670;2023-09-08T20:27:52;14.55;;;12.95;;
19617;SDS011;9956;51.006;13.670;2023-09-08T20:32:53;17.30;;;13.77;;
19617;SDS011;9956;51.006;13.670;2023-09-08T20:37:53;14.20;;;12.05;;
19617;SDS011;9956;51.006;13.670;2023-09-08T20:42:54;11.95;;;10.75;;
19617;SDS011;9956;51.006;13.670;2023-09-08T20:47:54;12.18;;;10.90;;
19617;SDS011;9956;51.006;13.670;2023-09-08T20:52:55;11.75;;;10.55;;
19617;SDS011;9956;51.006;13.670;2023-09-08T20:57:55;12.38;;;11.18;;
19617;SDS011;9956;51.006;13.670;2023-09-08T21:02:55;12.85;;;11.13;;
19617;SDS011;9956;51.006;13.670;2023-09-08T21:07:56;12.77;;;11.13;;
19617;SDS011;9956;51.006;13.670;2023-09-08T21:12:56;11.07;;;9.70;;
19617;SDS011;9956;51.006;13.670;2023-09-08T21:17:57;12.43;;;10.25;;
19617;SDS011;9956;51.006;13.670;2023-09-08T21:22:57;12.30;;;10.20;;
19617;SDS011;9956;51.006;13.670;2023-09-08T21:28:01;11.57;;;10.13;;
19617;SDS011;9956;51.006;13.670;2023-09-08T21:33:03;13.10;;;10.52;;
19617;SDS011;9956;51.006;13.670;2023-09-08T21:38:04;12.20;;;10.98;;
19617;SDS011;9956;51.006;13.670;2023-09-08T21:43:05;10.85;;;9.90;;
19617;SDS011;9956;51.006;13.670;2023-09-08T21:48:05;12.32;;;10.88;;
19617;SDS011;9956;51.006;13.670;2023-09-08T21:53:06;13.02;;;11.25;;
19617;SDS011;9956;51.006;13.670;2023-09-08T21:58:07;12.50;;;11.25;;
19617;SDS011;9956;51.006;13.670;2023-09-08T22:03:07;14.40;;;12.30;;
19617;SDS011;9956;51.006;13.670;2023-09-08T22:08:08;14.32;;;11.93;;
19617;SDS011;9956;51.006;13.670;2023-09-08T22:13:09;12.38;;;11.07;;
19617;SDS011;9956;51.006;13.670;2023-09-08T22:18:09;14.10;;;11.38;;
19617;SDS011;9956;51.006;13.670;2023-09-08T22:23:10;12.70;;;10.90;;
19617;SDS011;9956;51.006;13.670;2023-09-08T22:28:10;13.02;;;11.68;;
19617;SDS011;9956;51.006;13.670;2023-09-08T22:33:11;13.43;;;12.02;;
19617;SDS011;9956;51.006;13.670;2023-09-08T22:38:12;12.48;;;11.18;;
19617;SDS011;9956;51.006;13.670;2023-09-08T22:43:12;15.70;;;11.77;;
19617;SDS011;9956;51.006;13.670;2023-09-08T22:48:13;14.45;;;12.13;;
19617;SDS011;9956;51.006;13.670;2023-09-08T22:53:13;13.05;;;11.48;;
19617;SDS011;9956;51.006;13.670;2023-09-08T22:58:15;15.02;;;11.52;;
19617;SDS011;9956;51.006;13.670;2023-09-08T23:03:15;19.23;;;12.88;;
19617;SDS011;9956;51.006;13.670;2023-09-08T23:08:16;13.70;;;11.52;;
19617;SDS011;9956;51.006;13.670;2023-09-08T23:13:17;12.35;;;10.60;;
19617;SDS011;9956;51.006;13.670;2023-09-08T23:18:17;11.93;;;10.63;;
19617;SDS011;9956;51.006;13.670;2023-09-08T23:23:18;14.02;;;12.55;;
19617;SDS011;9956;51.006;13.670;2023-09-08T23:28:18;12.93;;;11.73;;
19617;SDS011;9956;51.006;13.670;2023-09-08T23:33:19;14.75;;;11.88;;
19617;SDS011;9956;51.006;13.670;2023-09-08T23:38:20;13.80;;;11.90;;
19617;SDS011;9956;51.006;13.670;2023-09-08T23:43:20;12.10;;;10.90;;
19617;SDS011;9956;51.006;13.670;2023-09-08T23:48:20;13.70;;;12.23;;
19617;SDS011;9956;51.006;13.670;2023-09-08T23:53:21;13.57;;;12.27;;
19617;SDS011;9956;51.006;13.670;2023-09-08T23:58:21;12.55;;;11.35;;
